CheckWX is a tool to help pilots better visualize weather data.  It is not intended as a substitute for an official pre-flight weather briefing.

06:48:56 UTC

MMZC TAF
General Leobardo C. Ruiz International Airport
Zacatecas, Mexico
TAF MMZC 240410Z 2406/2512 18008KT P6SM BKN250 TX27/2422Z TN13/2412Z FM241800 23020KT P6SM BKN100 OVC250 FM250600 20008KT P6SM BKN250

Apr-24@
06:00 UTC

Apr-24 @ 06:00 UTC

Apr-24@
18:00 UTC

Apr-24 @ 18:00 UTC

TAF MMZC 240410Z 2406/2512 18008KT P6SM BKN250 TX27/2422Z TN13/2412Z
Wind
  • 180° at 8 KTS
Cloud Levels
  • Broken at 25,000' AGL

Apr-24@
18:00 UTC

Apr-24 @ 18:00 UTC

Apr-25@
06:00 UTC

Apr-25 @ 06:00 UTC

FM241800 23020KT P6SM BKN100 OVC250

From

From Standard forecast or significant change

Wind
  • 230° at 20 KTS
Cloud Levels
  • Broken at 10,000' AGL
  • Overcast at 25,000' AGL

Apr-25@
06:00 UTC

Apr-25 @ 06:00 UTC

Apr-25@
12:00 UTC

Apr-25 @ 12:00 UTC

FM250600 20008KT P6SM BKN250

From

From Standard forecast or significant change

Wind
  • 200° at 8 KTS
Cloud Levels
  • Broken at 25,000' AGL